Time;durP1;ratioP1;P1;durP2;ratioP2;P2;SDS_P1;SDS_P2;PMS_P1;PMS_P2;Temp;Humidity;BMP_temperature;BMP_pressure;BME280_temperature;BME280_humidity;BME280_pressure;Samples;Min_cycle;Max_cycle;Signal;HPM_P1;HPM_P2
2022/07/16 00:03:43;;;;;;;3.25;1.95;;;;;;;25.91;38.98;99372.94;5015943;28;20095;-88
2022/07/16 00:06:08;;;;;;;4.15;2.33;;;;;;;25.56;38.81;99331.50;5014609;28;20033;-88
2022/07/16 00:08:34;;;;;;;4.63;2.10;;;;;;;23.91;39.06;99071.00;5015701;28;20076;-88
2022/07/16 00:10:59;;;;;;;3.72;2.20;;;;;;;25.60;39.08;99380.44;5015819;28;20028;-88
2022/07/16 00:13:25;;;;;;;3.00;2.28;;;;;;;25.27;39.34;99315.22;5014655;28;20483;-88
2022/07/16 00:15:50;;;;;;;3.05;2.13;;;;;;;25.23;39.31;99289.81;5015941;28;20057;-88
2022/07/16 00:21:00;;;;;;;4.72;1.98;;;;;;;25.59;39.29;99376.09;5015636;28;20032;-88
2022/07/16 00:23:25;;;;;;;5.03;2.10;;;;;;;25.07;39.33;99320.72;5014235;28;20494;-88
2022/07/16 00:25:51;;;;;;;2.78;2.28;;;;;;;24.67;39.27;99268.50;5015427;28;20104;-88
2022/07/16 00:28:16;;;;;;;2.67;1.95;;;;;;;24.90;39.57;99312.13;5014364;28;20111;-89
2022/07/16 00:30:41;;;;;;;2.90;1.80;;;;;;;25.21;39.66;99350.63;5014543;28;20030;-88
2022/07/16 00:33:07;;;;;;;3.78;2.28;;;;;;;24.83;39.54;99303.53;5014970;28;20026;-87
2022/07/16 00:35:32;;;;;;;2.72;2.08;;;;;;;24.76;39.46;99297.63;5013794;28;20577;-88
2022/07/16 00:37:58;;;;;;;2.42;2.15;;;;;;;24.24;39.42;99221.38;5013793;28;20029;-88
2022/07/16 00:40:23;;;;;;;5.90;2.15;;;;;;;25.35;39.45;99408.41;5013998;28;20025;-88
2022/07/16 00:42:49;;;;;;;2.10;1.90;;;;;;;24.61;39.89;99314.69;5013926;28;20469;-88
2022/07/16 00:45:14;;;;;;;3.17;2.08;;;;;;;24.89;39.62;99351.03;5014191;28;20091;-88
2022/07/16 00:47:39;;;;;;;5.22;2.50;;;;;;;24.55;40.02;99315.78;5014895;28;20568;-88
2022/07/16 00:50:05;;;;;;;2.70;1.90;;;;;;;24.69;40.09;99358.13;5014840;28;20029;-88
2022/07/16 00:52:35;;;;;;;3.45;2.08;;;;;;;24.24;40.44;99286.13;5013778;28;20022;-87
2022/07/16 00:55:00;;;;;;;2.05;1.80;;;;;;;24.93;40.10;99411.50;5014614;28;20026;-88
2022/07/16 00:57:26;;;;;;;3.78;2.17;;;;;;;23.82;40.32;99232.53;5014491;28;20045;-88
2022/07/16 00:59:51;;;;;;;2.65;1.80;;;;;;;24.20;40.40;99344.41;5023699;28;20033;-88
2022/07/16 01:02:16;;;;;;;2.38;2.03;;;;;;;24.47;40.53;99360.31;5031360;28;20058;-88
2022/07/16 01:04:43;;;;;;;2.25;1.98;;;;;;;23.54;40.59;99216.88;5015992;28;20045;-88
2022/07/16 01:07:09;;;;;;;2.72;2.20;;;;;;;23.47;40.69;99227.94;5014030;28;20029;-88
2022/07/16 01:09:35;;;;;;;2.10;1.85;;;;;;;23.69;40.96;99271.63;5013607;28;20410;-88
2022/07/16 01:12:01;;;;;;;5.57;2.13;;;;;;;23.98;40.84;99298.84;5013540;28;20517;-88
2022/07/16 01:14:27;;;;;;;4.85;1.90;;;;;;;24.11;41.00;99331.75;5013767;28;20028;-88
2022/07/16 01:16:52;;;;;;;4.50;2.40;;;;;;;23.50;41.11;99224.69;5013514;28;20022;-88
2022/07/16 01:19:18;;;;;;;3.72;2.03;;;;;;;23.85;41.19;99285.94;5030227;28;20057;-88
2022/07/16 01:21:43;;;;;;;2.30;1.92;;;;;;;24.23;40.96;99341.16;5013300;28;20018;-88
2022/07/16 01:24:09;;;;;;;3.08;2.33;;;;;;;22.95;41.17;99176.97;5013264;28;20490;-88
2022/07/16 01:26:34;;;;;;;4.00;2.38;;;;;;;24.25;41.46;99375.97;5013324;28;20057;-88
2022/07/16 01:29:00;;;;;;;4.15;2.30;;;;;;;23.88;41.18;99312.34;5013256;28;20037;-88
2022/07/16 01:31:25;;;;;;;4.78;2.10;;;;;;;24.25;41.47;99389.47;5014349;28;20030;-88
2022/07/16 01:36:35;;;;;;;3.40;2.35;;;;;;;23.76;41.61;99339.56;5014437;28;20033;-88
2022/07/16 01:39:00;;;;;;;3.20;2.10;;;;;;;23.99;41.70;99370.59;5012998;28;20026;-88
2022/07/16 01:41:26;;;;;;;3.83;2.08;;;;;;;23.93;41.96;99373.56;5013649;28;20498;-88
2022/07/16 01:43:51;;;;;;;2.92;2.00;;;;;;;23.83;41.75;99355.50;5013083;28;20018;-88
2022/07/16 01:46:17;;;;;;;3.22;1.90;;;;;;;23.53;41.83;99314.97;5029405;28;20414;-88
2022/07/16 01:48:42;;;;;;;3.15;2.42;;;;;;;24.11;42.09;99399.19;5012981;28;20020;-88
2022/07/16 01:51:08;;;;;;;3.55;2.28;;;;;;;23.11;41.98;99273.72;5013172;28;20510;-88
2022/07/16 01:53:33;;;;;;;2.50;1.90;;;;;;;23.75;42.32;99393.75;5013032;28;20033;-88
2022/07/16 01:55:59;;;;;;;4.82;2.20;;;;;;;23.85;42.54;99396.47;5029260;28;20033;-88
2022/07/16 01:58:25;;;;;;;3.65;1.92;;;;;;;23.34;42.62;99326.28;5013227;28;20589;-88
2022/07/16 02:00:51;;;;;;;4.47;2.25;;;;;;;23.67;42.75;99396.97;5021683;28;20030;-88
2022/07/16 02:03:16;;;;;;;3.30;2.35;;;;;;;23.04;42.72;99294.69;5029437;28;20069;-88
2022/07/16 02:05:42;;;;;;;4.28;2.50;;;;;;;23.37;43.00;99365.34;5035185;28;20074;-88
2022/07/16 02:08:08;;;;;;;4.93;2.40;;;;;;;23.68;42.92;99401.28;5036178;28;20022;-88
2022/07/16 02:10:34;;;;;;;4.13;2.28;;;;;;;23.68;42.94;99401.28;5031911;28;20565;-88
2022/07/16 02:12:59;;;;;;;2.78;2.17;;;;;;;23.00;43.04;99303.53;5015677;28;20025;-88
2022/07/16 02:15:26;;;;;;;3.22;2.13;;;;;;;22.94;43.07;99289.25;5015422;28;20021;-88
2022/07/16 02:17:51;;;;;;;4.57;2.08;;;;;;;23.17;43.09;99319.50;5014970;28;20414;-88
2022/07/16 02:20:17;;;;;;;8.70;2.60;;;;;;;23.64;43.04;99400.19;5015408;28;20085;-88
2022/07/16 02:22:43;;;;;;;3.53;2.20;;;;;;;22.94;43.04;99313.47;5015494;28;20459;-88
2022/07/16 02:25:10;;;;;;;3.92;2.13;;;;;;;23.44;43.47;99409.00;5012141;28;20022;-88
2022/07/16 02:27:35;;;;;;;4.95;2.63;;;;;;;23.22;43.31;99378.78;5013357;28;20033;-88
2022/07/16 02:30:01;;;;;;;3.05;2.40;;;;;;;22.99;43.38;99358.47;5013648;28;20026;-88
2022/07/16 02:32:27;;;;;;;2.67;2.10;;;;;;;23.39;43.50;99407.13;5012020;28;20112;-88
2022/07/16 02:34:53;;;;;;;6.57;2.58;;;;;;;22.96;43.58;99356.31;5013190;28;20029;-88
2022/07/16 02:37:19;;;;;;;4.65;2.60;;;;;;;23.20;43.58;99384.44;5012004;28;20029;-88
2022/07/16 02:39:44;;;;;;;4.35;2.30;;;;;;;23.43;43.27;99413.59;5012119;28;20018;-88
2022/07/16 02:42:10;;;;;;;5.13;2.45;;;;;;;22.64;43.46;99286.44;5027725;28;20013;-88
2022/07/16 02:44:35;;;;;;;4.35;2.33;;;;;;;22.63;43.63;99315.22;5012004;28;20025;-88
2022/07/16 02:47:00;;;;;;;3.50;2.30;;;;;;;21.54;43.81;99157.25;5012881;28;20104;-88
2022/07/16 02:49:26;;;;;;;3.97;2.47;;;;;;;23.21;43.73;99429.13;5011740;28;20026;-88
2022/07/16 02:51:51;;;;;;;4.00;2.30;;;;;;;22.22;43.99;99300.72;5011653;28;20029;-88
2022/07/16 02:54:17;;;;;;;2.83;2.42;;;;;;;22.49;44.07;99319.47;5028287;28;20021;-88
2022/07/16 02:56:42;;;;;;;5.10;2.28;;;;;;;23.00;44.07;99417.44;5011584;28;20482;-88
2022/07/16 02:59:08;;;;;;;3.08;2.60;;;;;;;22.87;44.03;99374.03;5012995;28;20022;-88
2022/07/16 03:01:33;;;;;;;6.15;2.25;;;;;;;22.61;43.92;99324.63;5011887;28;20030;-88
2022/07/16 03:03:58;;;;;;;2.65;2.28;;;;;;;22.28;43.66;99285.41;5011859;28;20125;-88
2022/07/16 03:06:24;;;;;;;5.90;3.33;;;;;;;21.85;43.70;99238.88;5012024;28;20026;-88
2022/07/16 03:08:52;;;;;;;4.65;2.53;;;;;;;23.24;43.82;99417.84;5013071;28;20076;-88
2022/07/16 03:11:17;;;;;;;3.40;2.10;;;;;;;22.34;43.92;99308.63;5012408;28;20022;-88
2022/07/16 03:13:43;;;;;;;3.40;2.67;;;;;;;23.13;43.97;99432.34;5018822;28;20037;-88
2022/07/16 03:16:08;;;;;;;3.63;2.90;;;;;;;22.43;43.97;99339.34;5031061;28;20025;-88
2022/07/16 03:18:34;;;;;;;5.78;2.80;;;;;;;21.94;44.11;99244.59;5014172;28;20445;-87
2022/07/16 03:20:59;;;;;;;6.15;3.00;;;;;;;22.81;44.13;99400.13;5012869;28;20112;-88
2022/07/16 03:23:24;;;;;;;4.03;2.60;;;;;;;22.64;44.00;99375.22;5012574;28;20022;-88
2022/07/16 03:25:50;;;;;;;2.80;2.42;;;;;;;22.58;44.00;99374.41;5012690;28;20479;-88
2022/07/16 03:28:15;;;;;;;3.60;2.70;;;;;;;22.32;44.02;99300.00;5012551;28;20022;-88
2022/07/16 03:30:41;;;;;;;2.78;2.47;;;;;;;22.92;43.96;99395.59;5012826;28;20392;-88
2022/07/16 03:33:06;;;;;;;6.03;2.97;;;;;;;23.33;44.12;99428.91;5012511;28;20060;-88
2022/07/16 03:35:32;;;;;;;4.22;2.95;;;;;;;23.38;43.79;99424.34;5011513;28;20457;-88
2022/07/16 03:40:42;;;;;;;4.35;3.22;;;;;;;22.59;43.57;99313.31;5012791;28;20024;-88
2022/07/16 03:43:07;;;;;;;5.35;3.28;;;;;;;23.25;43.51;99399.78;5012492;28;20018;-88
2022/07/16 03:45:33;;;;;;;7.03;3.50;;;;;;;23.53;43.37;99434.38;5011239;28;20018;-88
2022/07/16 03:47:58;;;;;;;4.80;3.20;;;;;;;22.69;43.61;99294.53;5011186;28;20274;-88
2022/07/16 03:50:24;;;;;;;5.18;3.30;;;;;;;22.80;43.73;99323.94;5012371;28;20049;-88
2022/07/16 03:52:49;;;;;;;7.65;4.07;;;;;;;22.22;43.67;99235.38;5011451;28;20494;-88
2022/07/16 03:55:15;;;;;;;4.78;4.10;;;;;;;22.76;43.53;99311.22;5031652;28;20524;-87
2022/07/16 03:57:42;;;;;;;5.13;3.70;;;;;;;23.52;43.65;99429.25;5015098;28;20084;-89
2022/07/16 04:00:09;;;;;;;8.02;3.60;;;;;;;22.51;43.71;99267.00;5014755;28;20026;-88
2022/07/16 04:02:35;;;;;;;5.82;3.70;;;;;;;22.98;43.65;99346.88;5014667;28;20028;-88
2022/07/16 04:05:00;;;;;;;5.97;3.67;;;;;;;23.26;43.66;99379.88;5014771;28;20021;-88
2022/07/16 04:07:26;;;;;;;5.55;3.50;;;;;;;22.66;43.63;99281.59;5014793;28;20072;-88
2022/07/16 04:09:52;;;;;;;6.07;3.28;;;;;;;23.11;43.65;99367.97;5015787;28;20109;-88
2022/07/16 04:12:17;;;;;;;7.55;3.53;;;;;;;23.08;43.95;99356.91;5014822;28;20053;-88
2022/07/16 04:14:42;;;;;;;5.30;3.45;;;;;;;23.30;43.88;99397.94;5015680;28;20108;-88
2022/07/16 04:17:08;;;;;;;4.20;3.40;;;;;;;22.14;43.98;99190.97;5014328;28;20522;-88
2022/07/16 04:19:33;;;;;;;5.60;3.92;;;;;;;23.14;43.89;99374.72;5015670;28;20498;-88
2022/07/16 04:21:59;;;;;;;7.70;3.60;;;;;;;23.68;44.16;99428.22;5014812;28;20128;-88
2022/07/16 04:24:24;;;;;;;5.28;3.13;;;;;;;22.61;44.00;99285.06;5014892;28;20033;-87
2022/07/16 04:26:49;;;;;;;7.28;3.53;;;;;;;22.99;44.16;99340.44;5014447;28;20025;-88
2022/07/16 04:29:15;;;;;;;5.38;3.70;;;;;;;23.42;44.22;99378.81;5015533;28;20391;-88
2022/07/16 04:31:40;;;;;;;8.13;4.00;;;;;;;23.31;44.28;99382.56;5015669;28;20021;-88
2022/07/16 04:34:06;;;;;;;5.80;4.20;;;;;;;23.27;44.17;99355.34;5015247;28;20481;-88
2022/07/16 04:36:31;;;;;;;8.30;3.42;;;;;;;23.89;44.40;99437.19;5015773;28;20026;-88
2022/07/16 04:38:57;;;;;;;6.30;4.38;;;;;;;23.33;44.29;99348.09;5014196;28;20021;-88
2022/07/16 04:41:22;;;;;;;6.18;4.32;;;;;;;23.79;44.71;99454.16;5015101;28;20101;-88
2022/07/16 04:43:47;;;;;;;7.47;5.13;;;;;;;22.99;44.43;99315.38;5014070;28;20465;-88
2022/07/16 04:46:13;;;;;;;6.75;5.47;;;;;;;23.11;44.52;99310.59;5015167;28;20029;-88
2022/07/16 04:48:40;;;;;;;8.60;5.55;;;;;;;23.24;44.67;99330.84;5030496;28;20034;-88
2022/07/16 04:51:05;;;;;;;6.93;5.80;;;;;;;24.08;44.63;99454.47;5014226;28;20033;-88
2022/07/16 04:53:31;;;;;;;12.30;5.65;;;;;;;23.57;44.54;99372.69;5014030;28;20091;-88
2022/07/16 04:55:56;;;;;;;5.32;4.30;;;;;;;23.59;44.60;99374.03;5013720;28;20029;-88
2022/07/16 04:58:21;;;;;;;10.23;4.47;;;;;;;23.96;44.61;99408.88;5013672;28;20490;-88
2022/07/16 05:00:47;;;;;;;5.20;3.42;;;;;;;23.58;44.76;99336.56;5016838;28;20081;-88
2022/07/16 05:03:12;;;;;;;5.20;3.50;;;;;;;23.78;44.41;99371.63;5022004;28;20025;-88
2022/07/16 05:05:38;;;;;;;4.75;3.72;;;;;;;24.43;44.27;99445.59;5036489;28;20109;-88
2022/07/16 05:08:06;;;;;;;6.53;3.50;;;;;;;23.89;44.30;99357.09;5037976;28;20029;-88
2022/07/16 05:10:32;;;;;;;4.50;2.78;;;;;;;22.91;44.09;99221.66;5015088;28;20082;-88
2022/07/16 05:12:58;;;;;;;5.18;3.33;;;;;;;24.26;44.34;99382.97;5015262;28;20057;-88
2022/07/16 05:15:24;;;;;;;5.05;2.88;;;;;;;24.09;44.10;99349.00;5013956;28;20030;-88
2022/07/16 05:17:50;;;;;;;7.38;3.85;;;;;;;24.31;44.13;99353.31;5030607;28;20068;-88
2022/07/16 05:20:16;;;;;;;3.53;2.90;;;;;;;24.98;43.88;99471.75;5013610;28;20184;-88
2022/07/16 05:22:41;;;;;;;5.88;3.33;;;;;;;24.81;43.64;99429.91;5013507;28;20108;-88
2022/07/16 05:25:09;;;;;;;4.15;3.15;;;;;;;24.76;43.12;99414.53;5013448;28;20629;-88
2022/07/16 05:27:35;;;;;;;5.07;2.90;;;;;;;25.09;42.56;99464.44;5013755;28;20045;-87
2022/07/16 05:30:01;;;;;;;4.25;3.10;;;;;;;24.47;42.57;99359.50;5013311;28;20490;-88
2022/07/16 05:32:26;;;;;;;3.60;2.65;;;;;;;25.27;42.32;99452.25;5013004;28;20518;-88
2022/07/16 05:34:52;;;;;;;4.53;2.90;;;;;;;24.56;42.06;99352.50;5013253;28;20053;-88
2022/07/16 05:37:17;;;;;;;2.78;2.42;;;;;;;24.25;42.19;99292.34;5013240;28;20037;-88
2022/07/16 05:39:42;;;;;;;4.28;2.75;;;;;;;25.41;42.30;99469.47;5014346;28;20024;-88
2022/07/16 05:42:08;;;;;;;3.22;2.72;;;;;;;24.93;42.45;99387.19;5012858;28;20017;-88
2022/07/16 05:44:33;;;;;;;3.35;2.75;;;;;;;24.90;42.29;99372.34;5013227;28;20057;-88
2022/07/16 05:46:59;;;;;;;5.07;2.95;;;;;;;25.46;42.23;99460.53;5013342;28;20025;-88
2022/07/16 05:49:24;;;;;;;4.32;3.05;;;;;;;25.61;41.65;99477.47;5012909;28;20022;-88
2022/07/16 05:51:49;;;;;;;5.72;2.70;;;;;;;24.48;41.05;99274.75;5012845;28;20520;-88
2022/07/16 05:54:15;;;;;;;3.33;2.72;;;;;;;25.31;40.84;99443.31;5012757;28;20080;-88
2022/07/16 05:56:40;;;;;;;4.80;2.30;;;;;;;25.76;40.69;99482.03;5013667;28;20171;-88
2022/07/16 05:59:06;;;;;;;5.65;2.88;;;;;;;24.68;40.75;99294.41;5012753;28;20026;-88
2022/07/16 06:01:31;;;;;;;5.30;2.88;;;;;;;25.84;40.40;99453.59;5029446;28;20026;-88
2022/07/16 06:03:57;;;;;;;3.28;2.63;;;;;;;26.03;40.37;99464.59;5029371;28;20030;-88
2022/07/16 06:06:23;;;;;;;3.85;2.67;;;;;;;25.71;40.19;99409.03;5013854;28;20033;-88
2022/07/16 06:08:48;;;;;;;3.00;2.15;;;;;;;25.92;39.91;99424.03;5013448;28;20021;-88
2022/07/16 06:11:14;;;;;;;3.40;2.45;;;;;;;25.53;39.73;99332.06;5013080;28;20030;-88
2022/07/16 06:13:39;;;;;;;5.28;3.33;;;;;;;25.51;39.46;99315.34;5012647;28;20022;-88
2022/07/16 06:16:07;;;;;;;4.45;2.63;;;;;;;26.11;39.33;99396.34;5011835;28;20025;-88
2022/07/16 06:18:33;;;;;;;2.83;2.63;;;;;;;25.80;38.75;99347.06;5028890;28;20112;-88
2022/07/16 06:20:58;;;;;;;4.60;2.70;;;;;;;26.58;38.69;99458.72;5012623;28;20490;-88
2022/07/16 06:23:24;;;;;;;5.00;2.75;;;;;;;25.81;38.75;99327.84;5029011;28;20029;-89
2022/07/16 06:25:50;;;;;;;4.45;2.60;;;;;;;26.24;38.48;99361.28;5012501;28;20037;-88
2022/07/16 06:28:15;;;;;;;6.03;2.92;;;;;;;26.34;37.94;99352.31;5012889;28;20036;-88
2022/07/16 06:30:41;;;;;;;9.77;3.78;;;;;;;26.39;38.00;99348.72;5012659;28;20022;-88
2022/07/16 06:33:06;;;;;;;4.05;3.08;;;;;;;26.24;37.86;99311.78;5028675;28;20022;-88
2022/07/16 06:35:31;;;;;;;6.22;2.30;;;;;;;27.07;37.18;99419.00;5012894;28;20028;-88
2022/07/16 06:37:57;;;;;;;4.43;2.30;;;;;;;26.83;36.64;99381.84;5015297;28;20085;-88
2022/07/16 06:40:22;;;;;;;3.30;2.55;;;;;;;27.01;36.39;99403.91;5020510;28;20018;-88
2022/07/16 06:42:48;;;;;;;3.50;2.40;;;;;;;26.79;36.42;99352.91;5021034;28;20022;-88
2022/07/16 06:45:13;;;;;;;4.30;2.13;;;;;;;26.80;36.00;99333.66;5015817;28;20050;-88
2022/07/16 06:47:39;;;;;;;5.78;2.60;;;;;;;27.47;35.42;99428.50;5013537;28;20022;-88
2022/07/16 06:50:05;;;;;;;4.82;2.42;;;;;;;27.57;35.23;99433.81;5012881;28;20407;-89
2022/07/16 06:52:31;;;;;;;3.63;2.50;;;;;;;27.43;34.93;99386.81;5014068;28;20041;-89
2022/07/16 06:54:56;;;;;;;5.97;2.15;;;;;;;26.69;34.87;99266.34;5017014;28;20080;-87
2022/07/16 06:57:22;;;;;;;3.65;2.13;;;;;;;26.58;34.45;99233.97;5019194;28;20551;-88
2022/07/16 06:59:47;;;;;;;6.88;2.78;;;;;;;27.34;34.22;99323.50;5013210;28;20045;-90
2022/07/16 07:02:13;;;;;;;6.28;2.20;;;;;;;26.90;34.14;99254.16;5013058;28;20021;-88
2022/07/16 07:04:41;;;;;;;5.50;2.38;;;;;;;27.56;33.97;99336.47;5012375;28;20026;-88
2022/07/16 07:07:07;;;;;;;5.25;2.50;;;;;;;28.02;34.12;99393.56;5012616;28;20021;-88
2022/07/16 07:09:32;;;;;;;3.42;2.50;;;;;;;27.71;33.94;99331.66;5013383;28;20030;-88
2022/07/16 07:11:58;;;;;;;3.88;2.80;;;;;;;27.80;33.66;99339.91;5028417;28;20116;-88
2022/07/16 07:14:23;;;;;;;5.10;2.65;;;;;;;27.83;33.78;99329.28;5012161;28;20495;-88
2022/07/16 07:16:48;;;;;;;3.30;2.65;;;;;;;28.10;33.44;99357.59;5012107;28;20110;-88
2022/07/16 07:19:14;;;;;;;4.90;2.10;;;;;;;27.50;33.38;99260.63;5028001;28;20057;-88
2022/07/16 07:21:39;;;;;;;6.18;1.92;;;;;;;27.89;33.16;99335.44;5013068;28;20026;-88
2022/07/16 07:24:05;;;;;;;2.58;2.00;;;;;;;28.38;33.23;99382.94;5013372;28;20036;-88
2022/07/16 07:26:31;;;;;;;2.45;1.90;;;;;;;27.40;32.95;99209.25;5012368;28;20087;-88
2022/07/16 07:28:56;;;;;;;2.92;2.28;;;;;;;28.48;33.17;99383.56;5016596;28;20487;-88
2022/07/16 07:31:21;;;;;;;5.55;2.60;;;;;;;28.26;33.67;99318.28;5015966;28;20438;-88
2022/07/16 07:33:47;;;;;;;2.65;1.83;;;;;;;28.40;33.37;99329.16;5017173;28;20105;-88
2022/07/16 07:36:12;;;;;;;5.45;2.22;;;;;;;28.48;33.16;99350.97;5016947;28;20030;-87
2022/07/16 07:38:38;;;;;;;5.47;2.55;;;;;;;28.74;33.41;99378.47;5015401;28;20034;-88
2022/07/16 07:41:03;;;;;;;2.63;2.33;;;;;;;28.99;33.16;99398.13;5016437;28;20030;-88
2022/07/16 07:43:29;;;;;;;5.05;2.40;;;;;;;28.90;33.18;99367.31;5016068;28;20093;-88
2022/07/16 07:45:54;;;;;;;3.88;1.90;;;;;;;29.31;32.86;99424.38;5015712;28;20490;-88
2022/07/16 07:48:20;;;;;;;4.07;2.10;;;;;;;28.93;32.76;99362.06;5015599;28;20032;-88
2022/07/16 07:50:45;;;;;;;3.72;2.00;;;;;;;28.72;32.74;99314.66;5014931;28;20113;-88
2022/07/16 07:53:11;;;;;;;3.15;2.00;;;;;;;29.61;32.56;99447.44;5031482;28;20084;-88
2022/07/16 07:55:36;;;;;;;3.45;2.20;;;;;;;29.68;32.73;99432.28;5014977;28;20116;-88
2022/07/16 07:58:02;;;;;;;4.05;2.45;;;;;;;29.75;32.76;99425.66;5014798;28;20050;-88
2022/07/16 08:00:28;;;;;;;3.17;2.47;;;;;;;29.76;32.82;99421.81;5015998;28;20034;-87
2022/07/16 08:02:54;;;;;;;5.07;2.00;;;;;;;29.70;32.32;99407.50;5015200;28;20021;-88
2022/07/16 08:05:20;;;;;;;5.22;2.10;;;;;;;29.75;32.66;99398.44;5014750;28;20025;-87
2022/07/16 08:07:46;;;;;;;3.10;2.10;;;;;;;29.27;32.33;99318.13;5014764;28;20033;-87
2022/07/16 08:10:13;;;;;;;2.40;2.20;;;;;;;29.82;32.50;99393.38;5014828;28;20053;-88
2022/07/16 08:12:39;;;;;;;3.25;2.33;;;;;;;29.57;32.46;99335.69;5014525;28;20030;-88
2022/07/16 08:15:05;;;;;;;2.95;2.15;;;;;;;29.51;32.63;99309.72;5014542;28;20028;-87
2022/07/16 08:17:31;;;;;;;3.65;2.42;;;;;;;30.10;32.33;99385.91;5015229;28;20025;-88
2022/07/16 08:19:56;;;;;;;2.35;2.10;;;;;;;30.48;32.04;99419.81;5015557;28;20026;-88
2022/07/16 08:22:22;;;;;;;4.80;2.63;;;;;;;30.11;31.49;99343.94;5015605;28;20083;-88
2022/07/16 08:27:31;;;;;;;3.22;1.90;;;;;;;30.35;30.43;99352.56;5015295;28;20485;-88
2022/07/16 08:29:57;;;;;;;1.98;1.85;;;;;;;30.50;30.24;99365.81;5015361;28;20026;-88
2022/07/16 08:32:22;;;;;;;5.35;2.47;;;;;;;30.63;30.06;99388.66;5015382;28;20026;-88
2022/07/16 08:34:48;;;;;;;1.90;1.70;;;;;;;30.62;29.69;99357.88;5014779;28;20030;-88
2022/07/16 08:37:13;;;;;;;4.07;1.90;;;;;;;30.85;29.57;99390.50;5015414;28;20026;-88
2022/07/16 08:39:43;;;;;;;2.58;1.70;;;;;;;30.60;29.33;99337.50;5013372;28;20493;-87
2022/07/16 08:42:10;;;;;;;5.77;2.03;;;;;;;30.87;28.58;99348.16;5016134;28;20036;-88
2022/07/16 08:44:39;;;;;;;2.63;1.88;;;;;;;30.94;28.35;99343.03;5026723;28;20673;-88
2022/07/16 08:47:05;;;;;;;2.10;1.90;;;;;;;31.40;28.65;99398.22;5025909;28;20029;-88
2022/07/16 08:49:31;;;;;;;2.42;1.90;;;;;;;31.05;28.13;99318.19;5016046;28;20045;-88
2022/07/16 08:52:00;;;;;;;2.90;1.95;;;;;;;30.99;28.07;99293.00;5014404;28;20029;-89
2022/07/16 08:54:29;;;;;;;3.03;1.80;;;;;;;31.75;28.13;99405.31;5013544;28;20033;-88
2022/07/16 08:56:54;;;;;;;3.03;1.80;;;;;;;31.61;28.29;99361.78;5014423;28;20077;-87
2022/07/16 08:59:20;;;;;;;4.25;1.70;;;;;;;31.44;28.13;99309.94;5013253;28;20088;-87
2022/07/16 09:01:46;;;;;;;4.40;2.03;;;;;;;31.21;28.03;99253.91;5013482;28;20030;-88
2022/07/16 09:04:11;;;;;;;5.15;2.72;;;;;;;32.12;27.75;99379.28;5014461;28;20054;-87
2022/07/16 09:06:37;;;;;;;4.00;2.00;;;;;;;31.60;27.56;99275.56;5017785;28;20029;-88
2022/07/16 09:09:03;;;;;;;4.60;2.20;;;;;;;31.76;27.16;99275.09;5014036;28;20026;-87
2022/07/16 09:11:31;;;;;;;3.70;2.20;;;;;;;32.74;27.06;99406.16;5030736;28;20030;-89
2022/07/16 09:14:02;;;;;;;3.45;1.98;;;;;;;32.54;26.50;99350.25;5015189;28;20061;-88
2022/07/16 09:16:29;;;;;;;3.60;2.10;;;;;;;33.09;26.54;99397.78;5013677;28;20410;-87
2022/07/16 09:19:16;;;;;;;4.22;2.28;;;;;;;33.26;26.29;99416.84;5013428;28;20487;-87
2022/07/16 09:21:59;;;;;;;2.80;1.80;;;;;;;33.39;25.95;99404.06;5029743;28;20498;-87
2022/07/16 09:24:40;;;;;;;3.20;2.15;;;;;;;33.50;26.39;99404.50;5013196;28;20519;-87
2022/07/16 09:27:07;;;;;;;3.28;1.90;;;;;;;33.71;25.94;99410.78;5014369;28;20113;-87
2022/07/16 09:29:35;;;;;;;2.63;1.90;;;;;;;33.53;25.46;99344.41;5013284;28;20033;-87
2022/07/16 09:32:00;;;;;;;2.15;1.67;;;;;;;33.50;25.31;99333.31;5013063;28;20033;-87
2022/07/16 09:34:26;;;;;;;3.40;1.95;;;;;;;33.59;24.63;99315.69;5013668;28;20556;-88
2022/07/16 09:37:09;;;;;;;3.28;1.65;;;;;;;33.56;24.02;99285.44;5026192;28;20026;-86
2022/07/16 09:39:35;;;;;;;2.03;1.67;;;;;;;33.98;24.32;99328.06;5036433;28;20057;-88
2022/07/16 09:42:01;;;;;;;5.57;1.77;;;;;;;34.20;24.38;99332.34;5028385;28;20033;-87
2022/07/16 09:44:31;;;;;;;5.32;1.70;;;;;;;34.12;23.70;99292.13;5014010;28;20034;-87
2022/07/16 09:47:07;;;;;;;3.38;1.90;;;;;;;35.10;23.72;99389.00;5014371;28;20022;-88
2022/07/16 09:49:36;;;;;;;2.42;2.17;;;;;;;35.24;23.30;99396.88;5013338;28;20037;-87
2022/07/16 09:52:06;;;;;;;2.30;1.80;;;;;;;35.34;23.69;99393.69;5012564;28;20422;-87
2022/07/16 09:54:37;;;;;;;5.10;1.70;;;;;;;35.49;22.61;99392.16;5002950;28;20052;-88
2022/07/16 09:57:18;;;;;;;1.95;1.52;;;;;;;35.23;22.51;99323.91;5011794;28;20046;-88
2022/07/16 09:59:45;;;;;;;3.58;1.80;;;;;;;35.48;22.49;99341.13;5011719;28;20037;-88
2022/07/16 10:02:11;;;;;;;2.60;1.75;;;;;;;35.54;22.41;99320.53;5013063;28;20037;-88
2022/07/16 10:04:37;;;;;;;1.95;1.60;;;;;;;36.11;22.19;99391.63;5012403;28;20038;-87
2022/07/16 10:07:03;;;;;;;2.45;1.85;;;;;;;34.87;21.68;99171.13;5011981;28;20406;-88
2022/07/16 10:09:29;;;;;;;4.70;2.10;;;;;;;36.45;21.85;99378.41;5028313;28;20026;-87
2022/07/16 10:11:56;;;;;;;4.40;1.98;;;;;;;36.55;21.54;99372.38;5013161;28;20026;-88
2022/07/16 10:14:21;;;;;;;3.08;1.90;;;;;;;35.49;21.31;99227.41;5013294;28;20403;-88
2022/07/16 10:16:47;;;;;;;1.60;1.50;;;;;;;36.00;21.12;99268.81;5011671;28;20032;-88
2022/07/16 10:19:14;;;;;;;3.03;1.70;;;;;;;36.17;21.18;99291.25;5013076;28;20107;-88
2022/07/16 10:21:40;;;;;;;2.97;1.70;;;;;;;36.71;20.89;99378.66;5011634;28;20021;-88
2022/07/16 10:24:13;;;;;;;3.25;1.83;;;;;;;36.77;20.86;99359.97;5012074;28;20028;-87
2022/07/16 10:26:39;;;;;;;4.07;1.95;;;;;;;36.99;20.60;99364.00;5011576;28;20057;-87
2022/07/16 10:29:05;;;;;;;4.57;1.63;;;;;;;37.04;20.71;99375.53;5012566;28;20033;-88
2022/07/16 10:31:36;;;;;;;1.50;1.40;;;;;;;36.96;20.54;99338.00;5012648;28;20179;-87
2022/07/16 10:34:16;;;;;;;1.80;1.65;;;;;;;37.33;20.11;99355.00;5014792;28;20034;-88
2022/07/16 10:36:55;;;;;;;3.58;1.65;;;;;;;37.45;20.60;99367.84;5013384;28;20033;-87
2022/07/16 10:39:23;;;;;;;3.20;1.77;;;;;;;36.92;20.36;99277.38;5011252;28;20417;-87
2022/07/16 10:41:49;;;;;;;3.60;1.50;;;;;;;37.43;20.55;99353.63;5011405;28;20032;-88
2022/07/16 10:44:15;;;;;;;2.28;1.70;;;;;;;37.42;20.51;99332.75;5010687;28;20030;-88
2022/07/16 10:46:54;;;;;;;9.02;1.80;;;;;;;37.53;20.18;99359.34;5012233;28;20037;-88
2022/07/16 10:49:21;;;;;;;3.53;1.95;;;;;;;36.86;20.29;99316.53;5011264;28;20029;-88
2022/07/16 10:52:08;;;;;;;2.72;1.40;;;;;;;36.70;20.92;99352.31;5011395;28;20053;-88
2022/07/16 10:54:39;;;;;;;2.97;1.70;;;;;;;36.43;21.13;99337.53;5011470;28;20033;-88
2022/07/16 10:57:04;;;;;;;;;;;;;;;36.19;21.34;99338.44;5011310;28;20052;-87
2022/07/16 10:59:33;;;;;;;2.80;1.65;;;;;;;36.05;21.80;99332.56;5010872;28;19909;-88
2022/07/16 11:02:02;;;;;;;2.35;1.60;;;;;;;35.51;21.94;99288.28;5010585;28;20030;-88
2022/07/16 11:04:38;;;;;;;3.28;1.70;;;;;;;35.57;21.82;99293.16;5011524;28;20033;-88
2022/07/16 11:07:10;;;;;;;3.65;1.98;;;;;;;35.91;21.57;99310.22;5012912;28;20037;-88
2022/07/16 11:09:38;;;;;;;3.30;1.90;;;;;;;36.38;21.05;99314.97;5012484;28;20026;-87
2022/07/16 11:12:16;;;;;;;2.13;1.80;;;;;;;37.06;21.21;99331.13;5011832;28;20455;-87
2022/07/16 11:14:48;;;;;;;2.70;1.70;;;;;;;37.34;20.46;99323.53;5010522;28;20034;-87
2022/07/16 11:17:15;;;;;;;2.40;1.67;;;;;;;37.24;20.29;99240.72;5010814;28;20427;-88
2022/07/16 11:19:50;;;;;;;3.38;1.50;;;;;;;37.58;19.87;99330.72;5010873;28;20028;-87
2022/07/16 11:22:20;;;;;;;2.28;1.70;;;;;;;37.09;20.69;99308.41;5010756;28;20026;-88
2022/07/16 11:24:53;;;;;;;2.03;1.80;;;;;;;37.01;20.83;99325.91;5010750;28;20063;-87
2022/07/16 11:27:28;;;;;;;3.00;1.73;;;;;;;37.25;20.48;99320.22;5011977;28;20038;-88
2022/07/16 11:29:58;;;;;;;3.92;2.00;;;;;;;37.32;20.64;99327.81;5010579;28;20033;-87
2022/07/16 11:32:24;;;;;;;3.95;1.80;;;;;;;37.41;20.16;99287.09;5010507;28;20103;-87
2022/07/16 11:34:50;;;;;;;6.13;1.70;;;;;;;37.40;19.78;99246.94;5011542;28;20491;-87
2022/07/16 11:37:15;;;;;;;2.05;1.65;;;;;;;37.25;19.53;99184.50;5010279;28;20032;-88
2022/07/16 11:39:42;;;;;;;4.20;1.70;;;;;;;38.28;19.30;99300.16;5010279;28;20038;-87
2022/07/16 11:42:07;;;;;;;2.00;1.58;;;;;;;38.65;19.16;99321.69;5010417;28;20022;-87
2022/07/16 11:44:36;;;;;;;3.47;1.75;;;;;;;38.22;19.42;99301.66;5011770;28;20418;-87